sensor_id;sensor_type;location;lat;lon;timestamp;P1;durP1;ratioP1;P2;durP2;ratioP2
24159;SDS011;62385;41.594;23.808;2023-03-01T00:02:20;1.60;;;1.07;;
24159;SDS011;62385;41.594;23.808;2023-03-01T00:04:45;0.20;;;0.10;;
24159;SDS011;62385;41.594;23.808;2023-03-01T00:07:11;2.13;;;0.57;;
24159;SDS011;62385;41.594;23.808;2023-03-01T00:09:37;0.63;;;0.47;;
24159;SDS011;62385;41.594;23.808;2023-03-01T00:12:03;0.40;;;0.30;;
24159;SDS011;62385;41.594;23.808;2023-03-01T00:14:29;5.70;;;0.73;;
24159;SDS011;62385;41.594;23.808;2023-03-01T00:16:54;0.50;;;0.37;;
24159;SDS011;62385;41.594;23.808;2023-03-01T00:19:20;1.33;;;0.30;;
24159;SDS011;62385;41.594;23.808;2023-03-01T00:21:48;1.57;;;0.83;;
24159;SDS011;62385;41.594;23.808;2023-03-01T00:24:14;0.53;;;0.33;;
24159;SDS011;62385;41.594;23.808;2023-03-01T00:26:40;0.20;;;0.10;;
24159;SDS011;62385;41.594;23.808;2023-03-01T00:29:05;0.30;;;0.20;;
24159;SDS011;62385;41.594;23.808;2023-03-01T00:31:31;0.50;;;0.40;;
24159;SDS011;62385;41.594;23.808;2023-03-01T00:33:59;0.43;;;0.27;;
24159;SDS011;62385;41.594;23.808;2023-03-01T00:36:27;1.03;;;0.43;;
24159;SDS011;62385;41.594;23.808;2023-03-01T00:38:55;0.90;;;0.63;;
24159;SDS011;62385;41.594;23.808;2023-03-01T00:41:20;0.87;;;0.50;;
24159;SDS011;62385;41.594;23.808;2023-03-01T00:43:47;0.93;;;0.93;;
24159;SDS011;62385;41.594;23.808;2023-03-01T00:46:16;1.17;;;0.57;;
24159;SDS011;62385;41.594;23.808;2023-03-01T00:48:44;1.80;;;1.67;;
24159;SDS011;62385;41.594;23.808;2023-03-01T00:51:11;2.60;;;0.90;;
24159;SDS011;62385;41.594;23.808;2023-03-01T00:53:39;0.30;;;0.20;;
24159;SDS011;62385;41.594;23.808;2023-03-01T00:56:06;1.33;;;0.30;;
24159;SDS011;62385;41.594;23.808;2023-03-01T00:58:34;1.13;;;0.50;;
24159;SDS011;62385;41.594;23.808;2023-03-01T01:01:00;1.37;;;0.50;;
24159;SDS011;62385;41.594;23.808;2023-03-01T01:03:26;0.93;;;0.73;;
24159;SDS011;62385;41.594;23.808;2023-03-01T01:05:52;1.43;;;0.30;;
24159;SDS011;62385;41.594;23.808;2023-03-01T01:08:18;0.67;;;0.20;;
24159;SDS011;62385;41.594;23.808;2023-03-01T01:10:45;1.00;;;0.60;;
24159;SDS011;62385;41.594;23.808;2023-03-01T01:13:12;0.40;;;0.30;;
24159;SDS011;62385;41.594;23.808;2023-03-01T01:15:38;1.13;;;0.37;;
24159;SDS011;62385;41.594;23.808;2023-03-01T01:18:05;0.40;;;0.20;;
24159;SDS011;62385;41.594;23.808;2023-03-01T01:20:32;0.20;;;0.20;;
24159;SDS011;62385;41.594;23.808;2023-03-01T01:22:57;0.40;;;0.20;;
24159;SDS011;62385;41.594;23.808;2023-03-01T01:25:23;0.50;;;0.47;;
24159;SDS011;62385;41.594;23.808;2023-03-01T01:27:52;0.40;;;0.40;;
24159;SDS011;62385;41.594;23.808;2023-03-01T01:30:18;0.40;;;0.20;;
24159;SDS011;62385;41.594;23.808;2023-03-01T01:32:43;0.70;;;0.50;;
24159;SDS011;62385;41.594;23.808;2023-03-01T01:35:09;0.57;;;0.30;;
24159;SDS011;62385;41.594;23.808;2023-03-01T01:37:34;0.53;;;0.23;;
24159;SDS011;62385;41.594;23.808;2023-03-01T01:40:00;0.40;;;0.30;;
24159;SDS011;62385;41.594;23.808;2023-03-01T01:42:29;1.97;;;0.57;;
24159;SDS011;62385;41.594;23.808;2023-03-01T01:47:53;6.70;;;0.33;;
24159;SDS011;62385;41.594;23.808;2023-03-01T01:50:22;0.20;;;0.10;;
24159;SDS011;62385;41.594;23.808;2023-03-01T01:52:48;0.30;;;0.27;;
24159;SDS011;62385;41.594;23.808;2023-03-01T01:55:18;0.93;;;0.83;;
24159;SDS011;62385;41.594;23.808;2023-03-01T01:57:54;0.37;;;0.33;;
24159;SDS011;62385;41.594;23.808;2023-03-01T02:00:24;0.20;;;0.10;;
24159;SDS011;62385;41.594;23.808;2023-03-01T02:02:53;0.43;;;0.20;;
24159;SDS011;62385;41.594;23.808;2023-03-01T02:08:19;0.97;;;0.20;;
24159;SDS011;62385;41.594;23.808;2023-03-01T02:10:46;0.40;;;0.30;;
24159;SDS011;62385;41.594;23.808;2023-03-01T02:13:14;0.20;;;0.00;;
24159;SDS011;62385;41.594;23.808;2023-03-01T02:15:40;0.20;;;0.07;;
24159;SDS011;62385;41.594;23.808;2023-03-01T02:18:11;0.93;;;0.50;;
24159;SDS011;62385;41.594;23.808;2023-03-01T02:23:14;0.37;;;0.17;;
24159;SDS011;62385;41.594;23.808;2023-03-01T02:30:47;0.20;;;0.10;;
24159;SDS011;62385;41.594;23.808;2023-03-01T02:33:34;0.30;;;0.30;;
24159;SDS011;62385;41.594;23.808;2023-03-01T02:36:02;0.20;;;0.00;;
24159;SDS011;62385;41.594;23.808;2023-03-01T02:38:31;0.20;;;0.20;;
24159;SDS011;62385;41.594;23.808;2023-03-01T02:40:57;0.20;;;0.10;;
24159;SDS011;62385;41.594;23.808;2023-03-01T02:43:27;0.30;;;0.20;;
24159;SDS011;62385;41.594;23.808;2023-03-01T02:45:57;4.97;;;1.80;;
24159;SDS011;62385;41.594;23.808;2023-03-01T02:48:24;2.57;;;1.57;;
24159;SDS011;62385;41.594;23.808;2023-03-01T02:56:18;0.40;;;0.30;;
24159;SDS011;62385;41.594;23.808;2023-03-01T02:58:44;0.23;;;0.17;;
24159;SDS011;62385;41.594;23.808;2023-03-01T03:01:13;4.40;;;0.27;;
24159;SDS011;62385;41.594;23.808;2023-03-01T03:03:41;0.90;;;0.83;;
24159;SDS011;62385;41.594;23.808;2023-03-01T03:06:07;0.33;;;0.20;;
24159;SDS011;62385;41.594;23.808;2023-03-01T03:08:33;0.37;;;0.23;;
24159;SDS011;62385;41.594;23.808;2023-03-01T03:10:59;0.20;;;0.20;;
24159;SDS011;62385;41.594;23.808;2023-03-01T03:13:25;0.77;;;0.43;;
24159;SDS011;62385;41.594;23.808;2023-03-01T03:15:55;0.70;;;0.37;;
24159;SDS011;62385;41.594;23.808;2023-03-01T03:18:22;0.95;;;0.80;;
24159;SDS011;62385;41.594;23.808;2023-03-01T03:20:48;0.43;;;0.30;;
24159;SDS011;62385;41.594;23.808;2023-03-01T03:23:18;0.47;;;0.40;;
24159;SDS011;62385;41.594;23.808;2023-03-01T03:25:44;2.30;;;0.97;;
24159;SDS011;62385;41.594;23.808;2023-03-01T03:28:13;0.77;;;0.20;;
24159;SDS011;62385;41.594;23.808;2023-03-01T03:30:42;0.43;;;0.33;;
24159;SDS011;62385;41.594;23.808;2023-03-01T03:33:09;0.47;;;0.38;;
24159;SDS011;62385;41.594;23.808;2023-03-01T03:35:41;1.57;;;0.40;;
24159;SDS011;62385;41.594;23.808;2023-03-01T03:38:13;0.20;;;0.20;;
24159;SDS011;62385;41.594;23.808;2023-03-01T03:40:41;0.20;;;0.10;;
24159;SDS011;62385;41.594;23.808;2023-03-01T03:43:14;0.20;;;0.20;;
24159;SDS011;62385;41.594;23.808;2023-03-01T03:46:07;0.23;;;0.13;;
24159;SDS011;62385;41.594;23.808;2023-03-01T03:48:51;0.50;;;0.30;;
24159;SDS011;62385;41.594;23.808;2023-03-01T03:51:17;0.30;;;0.30;;
24159;SDS011;62385;41.594;23.808;2023-03-01T03:53:44;0.50;;;0.20;;
24159;SDS011;62385;41.594;23.808;2023-03-01T03:56:10;0.20;;;0.13;;
24159;SDS011;62385;41.594;23.808;2023-03-01T03:58:36;1.50;;;1.00;;
24159;SDS011;62385;41.594;23.808;2023-03-01T04:03:46;0.33;;;0.20;;
24159;SDS011;62385;41.594;23.808;2023-03-01T04:06:13;0.20;;;0.10;;
24159;SDS011;62385;41.594;23.808;2023-03-01T04:08:39;1.08;;;0.43;;
24159;SDS011;62385;41.594;23.808;2023-03-01T04:11:05;0.63;;;0.40;;
24159;SDS011;62385;41.594;23.808;2023-03-01T04:13:51;6.27;;;4.97;;
24159;SDS011;62385;41.594;23.808;2023-03-01T04:16:18;39.10;;;9.93;;
24159;SDS011;62385;41.594;23.808;2023-03-01T04:18:44;8.07;;;4.90;;
24159;SDS011;62385;41.594;23.808;2023-03-01T04:21:10;12.33;;;5.23;;
24159;SDS011;62385;41.594;23.808;2023-03-01T04:23:36;11.20;;;6.43;;
24159;SDS011;62385;41.594;23.808;2023-03-01T04:26:03;2.80;;;1.37;;
24159;SDS011;62385;41.594;23.808;2023-03-01T04:28:33;2.97;;;1.10;;
24159;SDS011;62385;41.594;23.808;2023-03-01T04:31:09;3.90;;;1.83;;
24159;SDS011;62385;41.594;23.808;2023-03-01T04:33:43;2.93;;;1.70;;
24159;SDS011;62385;41.594;23.808;2023-03-01T04:36:10;2.83;;;1.83;;
24159;SDS011;62385;41.594;23.808;2023-03-01T04:38:37;1.97;;;1.43;;
24159;SDS011;62385;41.594;23.808;2023-03-01T04:41:08;2.93;;;0.73;;
24159;SDS011;62385;41.594;23.808;2023-03-01T04:43:35;1.87;;;1.27;;
24159;SDS011;62385;41.594;23.808;2023-03-01T04:46:03;0.73;;;0.60;;
24159;SDS011;62385;41.594;23.808;2023-03-01T04:48:31;1.80;;;1.23;;
24159;SDS011;62385;41.594;23.808;2023-03-01T04:51:00;2.70;;;1.53;;
24159;SDS011;62385;41.594;23.808;2023-03-01T04:53:26;0.93;;;0.80;;
24159;SDS011;62385;41.594;23.808;2023-03-01T04:55:56;1.13;;;1.03;;
24159;SDS011;62385;41.594;23.808;2023-03-01T04:58:25;1.30;;;0.73;;
24159;SDS011;62385;41.594;23.808;2023-03-01T05:00:52;5.80;;;0.87;;
24159;SDS011;62385;41.594;23.808;2023-03-01T05:03:19;1.20;;;0.70;;
24159;SDS011;62385;41.594;23.808;2023-03-01T05:05:46;0.73;;;0.47;;
24159;SDS011;62385;41.594;23.808;2023-03-01T05:08:14;0.67;;;0.57;;
24159;SDS011;62385;41.594;23.808;2023-03-01T05:10:43;0.63;;;0.50;;
24159;SDS011;62385;41.594;23.808;2023-03-01T05:13:11;0.47;;;0.27;;
24159;SDS011;62385;41.594;23.808;2023-03-01T05:15:54;0.83;;;0.50;;
24159;SDS011;62385;41.594;23.808;2023-03-01T05:18:23;0.93;;;0.83;;
24159;SDS011;62385;41.594;23.808;2023-03-01T05:20:53;0.33;;;0.23;;
24159;SDS011;62385;41.594;23.808;2023-03-01T05:23:21;1.73;;;1.17;;
24159;SDS011;62385;41.594;23.808;2023-03-01T05:25:48;2.73;;;1.13;;
24159;SDS011;62385;41.594;23.808;2023-03-01T05:28:14;0.87;;;0.67;;
24159;SDS011;62385;41.594;23.808;2023-03-01T05:30:40;2.53;;;1.27;;
24159;SDS011;62385;41.594;23.808;2023-03-01T05:33:06;1.93;;;1.60;;
24159;SDS011;62385;41.594;23.808;2023-03-01T05:35:43;3.03;;;2.25;;
24159;SDS011;62385;41.594;23.808;2023-03-01T05:38:11;4.93;;;1.63;;
24159;SDS011;62385;41.594;23.808;2023-03-01T05:40:41;8.50;;;2.85;;
24159;SDS011;62385;41.594;23.808;2023-03-01T05:43:07;4.50;;;1.70;;
24159;SDS011;62385;41.594;23.808;2023-03-01T05:45:33;3.58;;;2.00;;
24159;SDS011;62385;41.594;23.808;2023-03-01T05:48:01;1.63;;;0.97;;
24159;SDS011;62385;41.594;23.808;2023-03-01T05:50:27;2.87;;;1.33;;
24159;SDS011;62385;41.594;23.808;2023-03-01T05:53:04;5.28;;;2.85;;
24159;SDS011;62385;41.594;23.808;2023-03-01T05:55:51;1.40;;;1.30;;
24159;SDS011;62385;41.594;23.808;2023-03-01T05:58:18;3.70;;;1.92;;
24159;SDS011;62385;41.594;23.808;2023-03-01T06:00:46;9.00;;;4.15;;
24159;SDS011;62385;41.594;23.808;2023-03-01T06:03:13;5.80;;;4.22;;
24159;SDS011;62385;41.594;23.808;2023-03-01T06:05:41;14.23;;;6.40;;
24159;SDS011;62385;41.594;23.808;2023-03-01T06:08:08;8.03;;;3.70;;
24159;SDS011;62385;41.594;23.808;2023-03-01T06:10:35;4.80;;;2.67;;
24159;SDS011;62385;41.594;23.808;2023-03-01T06:13:00;15.23;;;5.80;;
24159;SDS011;62385;41.594;23.808;2023-03-01T06:15:26;13.23;;;6.33;;
24159;SDS011;62385;41.594;23.808;2023-03-01T06:17:53;8.27;;;3.95;;
24159;SDS011;62385;41.594;23.808;2023-03-01T06:20:24;4.70;;;2.78;;
24159;SDS011;62385;41.594;23.808;2023-03-01T06:22:51;3.97;;;1.95;;
24159;SDS011;62385;41.594;23.808;2023-03-01T06:25:18;2.37;;;2.03;;
24159;SDS011;62385;41.594;23.808;2023-03-01T06:27:46;2.22;;;1.83;;
24159;SDS011;62385;41.594;23.808;2023-03-01T06:30:14;3.15;;;1.77;;
24159;SDS011;62385;41.594;23.808;2023-03-01T06:32:41;1.40;;;0.63;;
24159;SDS011;62385;41.594;23.808;2023-03-01T06:35:08;1.85;;;1.33;;
24159;SDS011;62385;41.594;23.808;2023-03-01T06:37:39;2.03;;;1.17;;
24159;SDS011;62385;41.594;23.808;2023-03-01T06:40:06;2.10;;;1.52;;
24159;SDS011;62385;41.594;23.808;2023-03-01T06:42:36;2.42;;;1.52;;
24159;SDS011;62385;41.594;23.808;2023-03-01T06:45:04;1.23;;;1.13;;
24159;SDS011;62385;41.594;23.808;2023-03-01T06:47:31;13.15;;;1.05;;
24159;SDS011;62385;41.594;23.808;2023-03-01T06:49:58;2.33;;;1.13;;
24159;SDS011;62385;41.594;23.808;2023-03-01T06:52:25;3.47;;;1.30;;
24159;SDS011;62385;41.594;23.808;2023-03-01T06:54:50;2.67;;;2.17;;
24159;SDS011;62385;41.594;23.808;2023-03-01T06:57:16;3.53;;;1.92;;
24159;SDS011;62385;41.594;23.808;2023-03-01T06:59:42;7.95;;;2.55;;
24159;SDS011;62385;41.594;23.808;2023-03-01T07:02:11;5.68;;;2.45;;
24159;SDS011;62385;41.594;23.808;2023-03-01T07:04:37;4.78;;;2.80;;
24159;SDS011;62385;41.594;23.808;2023-03-01T07:07:03;2.33;;;1.90;;
24159;SDS011;62385;41.594;23.808;2023-03-01T07:09:29;3.28;;;1.67;;
24159;SDS011;62385;41.594;23.808;2023-03-01T07:11:55;2.20;;;1.77;;
24159;SDS011;62385;41.594;23.808;2023-03-01T07:14:22;3.45;;;2.03;;
24159;SDS011;62385;41.594;23.808;2023-03-01T07:16:49;3.58;;;1.77;;
24159;SDS011;62385;41.594;23.808;2023-03-01T07:19:15;0.93;;;0.80;;
24159;SDS011;62385;41.594;23.808;2023-03-01T07:21:41;1.42;;;0.85;;
24159;SDS011;62385;41.594;23.808;2023-03-01T07:24:07;0.80;;;0.80;;
24159;SDS011;62385;41.594;23.808;2023-03-01T07:26:34;2.53;;;0.77;;
24159;SDS011;62385;41.594;23.808;2023-03-01T07:29:02;2.55;;;1.80;;
24159;SDS011;62385;41.594;23.808;2023-03-01T07:31:28;1.58;;;1.40;;
24159;SDS011;62385;41.594;23.808;2023-03-01T07:33:54;2.63;;;1.60;;
24159;SDS011;62385;41.594;23.808;2023-03-01T07:36:20;4.13;;;1.90;;
24159;SDS011;62385;41.594;23.808;2023-03-01T07:38:47;10.27;;;5.20;;
24159;SDS011;62385;41.594;23.808;2023-03-01T07:41:13;8.18;;;3.65;;
24159;SDS011;62385;41.594;23.808;2023-03-01T07:43:39;5.82;;;2.10;;
24159;SDS011;62385;41.594;23.808;2023-03-01T07:46:05;6.38;;;3.17;;
24159;SDS011;62385;41.594;23.808;2023-03-01T07:48:32;4.18;;;2.53;;
24159;SDS011;62385;41.594;23.808;2023-03-01T07:51:01;5.45;;;3.38;;
24159;SDS011;62385;41.594;23.808;2023-03-01T07:53:29;3.85;;;2.72;;
24159;SDS011;62385;41.594;23.808;2023-03-01T07:56:11;7.38;;;3.38;;
24159;SDS011;62385;41.594;23.808;2023-03-01T07:58:39;3.92;;;2.50;;
24159;SDS011;62385;41.594;23.808;2023-03-01T08:01:07;3.17;;;1.77;;
24159;SDS011;62385;41.594;23.808;2023-03-01T08:03:34;3.83;;;2.30;;
24159;SDS011;62385;41.594;23.808;2023-03-01T08:06:01;5.72;;;2.47;;
24159;SDS011;62385;41.594;23.808;2023-03-01T08:08:29;7.97;;;3.65;;
24159;SDS011;62385;41.594;23.808;2023-03-01T08:10:58;6.38;;;4.03;;
24159;SDS011;62385;41.594;23.808;2023-03-01T08:13:25;6.57;;;3.70;;
24159;SDS011;62385;41.594;23.808;2023-03-01T08:15:51;5.93;;;4.80;;
24159;SDS011;62385;41.594;23.808;2023-03-01T08:18:17;11.77;;;4.00;;
24159;SDS011;62385;41.594;23.808;2023-03-01T08:20:44;9.27;;;4.82;;
24159;SDS011;62385;41.594;23.808;2023-03-01T08:23:10;9.13;;;6.18;;
24159;SDS011;62385;41.594;23.808;2023-03-01T08:25:36;13.48;;;6.07;;
24159;SDS011;62385;41.594;23.808;2023-03-01T08:28:02;15.07;;;6.43;;
24159;SDS011;62385;41.594;23.808;2023-03-01T08:30:28;12.77;;;6.45;;
24159;SDS011;62385;41.594;23.808;2023-03-01T08:32:55;9.57;;;5.53;;
24159;SDS011;62385;41.594;23.808;2023-03-01T08:35:20;11.15;;;6.03;;
24159;SDS011;62385;41.594;23.808;2023-03-01T08:37:46;11.00;;;6.32;;
24159;SDS011;62385;41.594;23.808;2023-03-01T08:40:13;15.15;;;7.20;;
24159;SDS011;62385;41.594;23.808;2023-03-01T08:42:40;5.35;;;3.70;;
24159;SDS011;62385;41.594;23.808;2023-03-01T08:45:07;8.73;;;3.83;;
24159;SDS011;62385;41.594;23.808;2023-03-01T08:47:34;4.50;;;3.05;;
24159;SDS011;62385;41.594;23.808;2023-03-01T08:50:00;8.88;;;3.80;;
24159;SDS011;62385;41.594;23.808;2023-03-01T08:52:25;8.88;;;3.20;;
24159;SDS011;62385;41.594;23.808;2023-03-01T08:54:52;4.10;;;2.80;;
24159;SDS011;62385;41.594;23.808;2023-03-01T08:57:18;4.90;;;3.00;;
24159;SDS011;62385;41.594;23.808;2023-03-01T08:59:43;19.52;;;8.55;;
24159;SDS011;62385;41.594;23.808;2023-03-01T09:02:13;17.35;;;7.03;;
24159;SDS011;62385;41.594;23.808;2023-03-01T09:04:40;8.80;;;4.93;;
24159;SDS011;62385;41.594;23.808;2023-03-01T09:07:07;8.13;;;2.65;;
24159;SDS011;62385;41.594;23.808;2023-03-01T09:09:33;9.80;;;4.13;;
24159;SDS011;62385;41.594;23.808;2023-03-01T09:12:00;5.25;;;3.15;;
24159;SDS011;62385;41.594;23.808;2023-03-01T09:14:26;16.65;;;6.28;;
24159;SDS011;62385;41.594;23.808;2023-03-01T09:16:52;22.30;;;9.55;;
24159;SDS011;62385;41.594;23.808;2023-03-01T09:19:18;2.45;;;1.80;;
24159;SDS011;62385;41.594;23.808;2023-03-01T09:21:44;16.08;;;6.97;;
24159;SDS011;62385;41.594;23.808;2023-03-01T09:24:19;6.95;;;3.30;;
24159;SDS011;62385;41.594;23.808;2023-03-01T09:26:46;1.58;;;0.70;;
24159;SDS011;62385;41.594;23.808;2023-03-01T09:29:12;2.90;;;0.93;;
24159;SDS011;62385;41.594;23.808;2023-03-01T09:31:38;3.28;;;1.80;;
24159;SDS011;62385;41.594;23.808;2023-03-01T09:34:04;1.38;;;1.27;;
24159;SDS011;62385;41.594;23.808;2023-03-01T09:36:30;3.78;;;1.00;;
24159;SDS011;62385;41.594;23.808;2023-03-01T09:38:57;1.52;;;1.42;;
24159;SDS011;62385;41.594;23.808;2023-03-01T09:41:33;1.70;;;1.60;;
24159;SDS011;62385;41.594;23.808;2023-03-01T09:44:13;4.50;;;2.03;;
24159;SDS011;62385;41.594;23.808;2023-03-01T09:46:45;2.83;;;1.17;;
24159;SDS011;62385;41.594;23.808;2023-03-01T09:49:13;1.47;;;1.13;;
24159;SDS011;62385;41.594;23.808;2023-03-01T09:51:42;2.17;;;1.53;;
24159;SDS011;62385;41.594;23.808;2023-03-01T09:54:19;2.70;;;2.10;;
24159;SDS011;62385;41.594;23.808;2023-03-01T09:56:46;1.85;;;1.05;;
24159;SDS011;62385;41.594;23.808;2023-03-01T09:59:29;3.97;;;1.85;;
24159;SDS011;62385;41.594;23.808;2023-03-01T10:02:58;1.88;;;1.52;;
24159;SDS011;62385;41.594;23.808;2023-03-01T10:08:13;3.92;;;2.85;;
24159;SDS011;62385;41.594;23.808;2023-03-01T10:10:52;2.28;;;1.25;;
24159;SDS011;62385;41.594;23.808;2023-03-01T10:13:24;1.55;;;0.93;;
24159;SDS011;62385;41.594;23.808;2023-03-01T10:15:56;2.08;;;1.55;;
24159;SDS011;62385;41.594;23.808;2023-03-01T10:18:26;2.45;;;1.75;;
24159;SDS011;62385;41.594;23.808;2023-03-01T10:21:01;6.45;;;2.20;;
24159;SDS011;62385;41.594;23.808;2023-03-01T10:23:33;1.85;;;1.60;;
24159;SDS011;62385;41.594;23.808;2023-03-01T10:26:21;5.70;;;2.67;;
24159;SDS011;62385;41.594;23.808;2023-03-01T10:31:42;5.93;;;2.92;;
24159;SDS011;62385;41.594;23.808;2023-03-01T10:36:40;5.72;;;2.72;;
24159;SDS011;62385;41.594;23.808;2023-03-01T10:39:14;4.97;;;3.25;;
24159;SDS011;62385;41.594;23.808;2023-03-01T10:44:36;3.35;;;2.38;;
24159;SDS011;62385;41.594;23.808;2023-03-01T10:47:15;3.47;;;2.00;;
24159;SDS011;62385;41.594;23.808;2023-03-01T10:52:20;1.92;;;1.50;;
24159;SDS011;62385;41.594;23.808;2023-03-01T10:54:52;6.88;;;2.03;;
24159;SDS011;62385;41.594;23.808;2023-03-01T10:57:31;2.38;;;1.60;;
24159;SDS011;62385;41.594;23.808;2023-03-01T11:02:50;3.70;;;1.92;;
24159;SDS011;62385;41.594;23.808;2023-03-01T11:05:28;2.35;;;0.95;;
24159;SDS011;62385;41.594;23.808;2023-03-01T11:07:59;1.92;;;1.70;;
24159;SDS011;62385;41.594;23.808;2023-03-01T11:10:27;1.25;;;0.85;;
24159;SDS011;62385;41.594;23.808;2023-03-01T11:13:08;7.20;;;3.97;;
24159;SDS011;62385;41.594;23.808;2023-03-01T11:15:40;3.22;;;2.22;;
24159;SDS011;62385;41.594;23.808;2023-03-01T11:18:20;2.17;;;1.30;;
24159;SDS011;62385;41.594;23.808;2023-03-01T11:20:47;6.32;;;2.97;;
24159;SDS011;62385;41.594;23.808;2023-03-01T11:23:14;14.95;;;4.93;;
24159;SDS011;62385;41.594;23.808;2023-03-01T11:26:02;2.53;;;1.75;;
24159;SDS011;62385;41.594;23.808;2023-03-01T11:28:30;4.38;;;1.73;;
24159;SDS011;62385;41.594;23.808;2023-03-01T11:31:09;7.32;;;3.25;;
24159;SDS011;62385;41.594;23.808;2023-03-01T11:36:27;9.35;;;4.50;;
24159;SDS011;62385;41.594;23.808;2023-03-01T11:38:57;2.05;;;1.65;;
24159;SDS011;62385;41.594;23.808;2023-03-01T11:41:31;6.57;;;1.92;;
24159;SDS011;62385;41.594;23.808;2023-03-01T11:44:03;5.63;;;1.55;;
24159;SDS011;62385;41.594;23.808;2023-03-01T11:51:48;3.45;;;2.47;;
24159;SDS011;62385;41.594;23.808;2023-03-01T12:26:35;5.15;;;2.72;;
24159;SDS011;62385;41.594;23.808;2023-03-01T12:32:40;2.97;;;1.77;;
24159;SDS011;62385;41.594;23.808;2023-03-01T12:38:19;4.05;;;2.42;;
24159;SDS011;62385;41.594;23.808;2023-03-01T12:49:22;10.02;;;4.75;;
24159;SDS011;62385;41.594;23.808;2023-03-01T12:54:36;5.30;;;2.83;;
24159;SDS011;62385;41.594;23.808;2023-03-01T12:57:14;7.68;;;2.75;;
24159;SDS011;62385;41.594;23.808;2023-03-01T13:02:23;5.88;;;3.40;;
24159;SDS011;62385;41.594;23.808;2023-03-01T13:08:26;8.27;;;3.38;;
24159;SDS011;62385;41.594;23.808;2023-03-01T13:11:01;3.65;;;2.33;;
24159;SDS011;62385;41.594;23.808;2023-03-01T13:13:30;3.42;;;2.00;;
24159;SDS011;62385;41.594;23.808;2023-03-01T13:15:56;3.55;;;2.38;;
24159;SDS011;62385;41.594;23.808;2023-03-01T13:20:50;5.15;;;3.47;;
24159;SDS011;62385;41.594;23.808;2023-03-01T13:26:00;6.25;;;2.92;;
24159;SDS011;62385;41.594;23.808;2023-03-01T13:37:34;6.47;;;3.35;;
24159;SDS011;62385;41.594;23.808;2023-03-01T13:42:55;3.78;;;2.22;;
24159;SDS011;62385;41.594;23.808;2023-03-01T13:47:54;7.82;;;4.05;;
24159;SDS011;62385;41.594;23.808;2023-03-01T13:50:25;3.75;;;2.03;;
24159;SDS011;62385;41.594;23.808;2023-03-01T13:52:55;5.20;;;2.80;;
24159;SDS011;62385;41.594;23.808;2023-03-01T13:55:29;4.90;;;2.20;;
24159;SDS011;62385;41.594;23.808;2023-03-01T13:57:56;3.17;;;2.10;;
24159;SDS011;62385;41.594;23.808;2023-03-01T14:00:25;8.10;;;2.22;;
24159;SDS011;62385;41.594;23.808;2023-03-01T14:03:02;5.65;;;2.03;;
24159;SDS011;62385;41.594;23.808;2023-03-01T14:05:29;6.35;;;2.08;;
24159;SDS011;62385;41.594;23.808;2023-03-01T14:07:55;3.60;;;2.67;;
24159;SDS011;62385;41.594;23.808;2023-03-01T14:10:21;7.25;;;2.00;;
24159;SDS011;62385;41.594;23.808;2023-03-01T14:19:01;3.92;;;2.05;;
24159;SDS011;62385;41.594;23.808;2023-03-01T14:21:42;9.32;;;3.80;;
24159;SDS011;62385;41.594;23.808;2023-03-01T14:24:17;4.47;;;2.92;;
24159;SDS011;62385;41.594;23.808;2023-03-01T14:26:46;4.95;;;2.75;;
24159;SDS011;62385;41.594;23.808;2023-03-01T14:29:28;6.82;;;3.22;;
24159;SDS011;62385;41.594;23.808;2023-03-01T14:32:11;4.35;;;2.60;;
24159;SDS011;62385;41.594;23.808;2023-03-01T14:34:49;6.80;;;2.50;;
24159;SDS011;62385;41.594;23.808;2023-03-01T14:39:47;3.60;;;2.42;;
24159;SDS011;62385;41.594;23.808;2023-03-01T14:42:14;7.03;;;3.55;;
24159;SDS011;62385;41.594;23.808;2023-03-01T14:44:45;5.72;;;2.80;;
24159;SDS011;62385;41.594;23.808;2023-03-01T14:47:14;4.63;;;3.28;;
24159;SDS011;62385;41.594;23.808;2023-03-01T14:53:12;4.18;;;2.67;;
24159;SDS011;62385;41.594;23.808;2023-03-01T14:55:44;5.00;;;2.30;;
24159;SDS011;62385;41.594;23.808;2023-03-01T14:58:14;5.55;;;2.75;;
24159;SDS011;62385;41.594;23.808;2023-03-01T15:00:52;2.20;;;1.80;;
24159;SDS011;62385;41.594;23.808;2023-03-01T15:03:23;5.45;;;2.92;;
24159;SDS011;62385;41.594;23.808;2023-03-01T15:06:02;4.45;;;2.00;;
24159;SDS011;62385;41.594;23.808;2023-03-01T15:08:29;2.20;;;1.90;;
24159;SDS011;62385;41.594;23.808;2023-03-01T15:13:32;3.67;;;1.67;;
24159;SDS011;62385;41.594;23.808;2023-03-01T15:16:06;4.15;;;1.90;;
24159;SDS011;62385;41.594;23.808;2023-03-01T15:18:36;5.97;;;2.83;;
24159;SDS011;62385;41.594;23.808;2023-03-01T15:21:13;5.18;;;1.83;;
24159;SDS011;62385;41.594;23.808;2023-03-01T15:23:47;4.32;;;2.13;;
24159;SDS011;62385;41.594;23.808;2023-03-01T15:26:23;5.68;;;2.67;;
24159;SDS011;62385;41.594;23.808;2023-03-01T15:28:51;2.70;;;2.38;;
24159;SDS011;62385;41.594;23.808;2023-03-01T15:31:24;3.45;;;2.58;;
24159;SDS011;62385;41.594;23.808;2023-03-01T15:33:51;4.13;;;2.83;;
24159;SDS011;62385;41.594;23.808;2023-03-01T15:42:04;6.00;;;3.75;;
24159;SDS011;62385;41.594;23.808;2023-03-01T15:44:33;7.57;;;3.13;;
24159;SDS011;62385;41.594;23.808;2023-03-01T15:49:53;3.78;;;2.33;;
24159;SDS011;62385;41.594;23.808;2023-03-01T15:52:29;3.47;;;2.38;;
24159;SDS011;62385;41.594;23.808;2023-03-01T15:55:06;5.50;;;2.38;;
24159;SDS011;62385;41.594;23.808;2023-03-01T15:57:41;3.80;;;2.17;;
24159;SDS011;62385;41.594;23.808;2023-03-01T16:00:09;2.78;;;1.98;;
24159;SDS011;62385;41.594;23.808;2023-03-01T16:02:40;9.52;;;2.55;;
24159;SDS011;62385;41.594;23.808;2023-03-01T16:05:28;6.75;;;2.75;;
24159;SDS011;62385;41.594;23.808;2023-03-01T16:07:54;4.80;;;2.92;;
24159;SDS011;62385;41.594;23.808;2023-03-01T16:10:19;16.67;;;7.00;;
24159;SDS011;62385;41.594;23.808;2023-03-01T16:12:46;35.03;;;8.52;;
24159;SDS011;62385;41.594;23.808;2023-03-01T16:15:17;17.52;;;8.77;;
24159;SDS011;62385;41.594;23.808;2023-03-01T16:17:45;20.92;;;9.85;;
24159;SDS011;62385;41.594;23.808;2023-03-01T16:20:20;15.98;;;9.68;;
24159;SDS011;62385;41.594;23.808;2023-03-01T16:22:46;21.73;;;11.30;;
24159;SDS011;62385;41.594;23.808;2023-03-01T16:25:13;22.23;;;8.88;;
24159;SDS011;62385;41.594;23.808;2023-03-01T16:27:44;18.38;;;10.48;;
24159;SDS011;62385;41.594;23.808;2023-03-01T16:30:11;22.25;;;10.98;;
24159;SDS011;62385;41.594;23.808;2023-03-01T16:32:38;12.13;;;7.38;;
24159;SDS011;62385;41.594;23.808;2023-03-01T16:35:05;9.95;;;6.13;;
24159;SDS011;62385;41.594;23.808;2023-03-01T16:37:32;22.85;;;11.90;;
24159;SDS011;62385;41.594;23.808;2023-03-01T16:39:58;12.48;;;7.63;;
24159;SDS011;62385;41.594;23.808;2023-03-01T16:42:24;10.13;;;6.43;;
24159;SDS011;62385;41.594;23.808;2023-03-01T16:44:54;19.17;;;7.93;;
24159;SDS011;62385;41.594;23.808;2023-03-01T16:47:20;7.63;;;5.72;;
24159;SDS011;62385;41.594;23.808;2023-03-01T16:49:46;11.32;;;5.47;;
24159;SDS011;62385;41.594;23.808;2023-03-01T16:52:11;6.13;;;3.72;;
24159;SDS011;62385;41.594;23.808;2023-03-01T16:54:37;8.32;;;3.83;;
24159;SDS011;62385;41.594;23.808;2023-03-01T16:57:03;10.70;;;4.07;;
24159;SDS011;62385;41.594;23.808;2023-03-01T16:59:29;9.88;;;3.95;;
24159;SDS011;62385;41.594;23.808;2023-03-01T17:01:55;5.85;;;4.05;;
24159;SDS011;62385;41.594;23.808;2023-03-01T17:04:21;8.48;;;4.43;;
24159;SDS011;62385;41.594;23.808;2023-03-01T17:06:46;12.07;;;6.65;;
24159;SDS011;62385;41.594;23.808;2023-03-01T17:09:13;12.32;;;6.30;;
24159;SDS011;62385;41.594;23.808;2023-03-01T17:11:39;11.02;;;4.53;;